createdAt,value
2019-04-16T00:01:50.200Z,3.82
2019-04-16T00:05:10.387Z,3.82
2019-04-16T00:08:26.444Z,3.80
2019-04-16T00:11:03.740Z,3.79
2019-04-16T00:17:03.372Z,3.65
2019-04-16T00:19:52.151Z,3.57
2019-04-16T00:22:39.132Z,3.49
2019-04-16T00:25:26.880Z,3.41
2019-04-16T00:28:20.039Z,3.34
2019-04-16T00:31:06.947Z,3.29
2019-04-16T00:33:54.226Z,3.29
2019-04-16T00:36:41.109Z,3.40
2019-04-16T00:39:31.594Z,3.50
2019-04-16T00:42:22.381Z,3.57
2019-04-16T00:48:16.137Z,3.50
2019-04-16T00:51:02.672Z,3.43
2019-04-16T00:53:50.377Z,3.35
2019-04-16T00:56:37.571Z,3.28
2019-04-16T01:02:38.230Z,3.14
2019-04-16T01:08:31.193Z,3.84
2019-04-16T01:11:18.516Z,3.41
2019-04-16T01:14:05.508Z,3.34
2019-04-16T01:16:53.467Z,3.29
2019-04-16T01:19:41.937Z,3.90
2019-04-16T01:22:30.107Z,3.41
2019-04-16T01:25:20.321Z,3.27
2019-04-16T01:31:26.957Z,3.09
2019-04-16T01:34:32.005Z,3.01
2019-04-16T01:37:20.087Z,2.92
2019-04-16T01:40:07.146Z,3.54
2019-04-16T01:42:54.607Z,3.06
2019-04-16T01:45:44.640Z,2.93
2019-04-16T01:51:41.241Z,2.80
2019-04-16T01:54:28.701Z,2.79
2019-04-16T01:57:16.551Z,3.41
2019-04-16T02:00:06.761Z,2.94
2019-04-16T02:02:50.365Z,3.53
2019-04-16T02:05:38.530Z,2.99
2019-04-16T02:08:28.336Z,2.86
2019-04-16T02:11:13.050Z,2.79
2019-04-16T02:14:00.164Z,2.77
2019-04-16T02:16:46.961Z,2.71
2019-04-16T02:19:34.116Z,2.67
2019-04-16T02:22:28.961Z,2.61
2019-04-16T02:25:30.054Z,2.54
2019-04-16T02:28:17.265Z,2.48
2019-04-16T02:31:12.845Z,3.11
2019-04-16T02:34:06.832Z,2.63
2019-04-16T02:37:00.857Z,2.49
2019-04-16T02:39:49.583Z,2.42
2019-04-16T02:42:36.026Z,2.35
2019-04-16T02:45:30.499Z,2.30
2019-04-16T02:48:17.871Z,2.24
2019-04-16T02:51:08.660Z,2.17
2019-04-16T02:57:07.642Z,2.28
2019-04-16T03:06:14.436Z,2.08
2019-04-16T03:09:01.798Z,2.05
2019-04-16T03:11:52.645Z,2.00
2019-04-16T03:14:40.335Z,1.98
2019-04-16T03:17:45.071Z,1.99
2019-04-16T03:23:38.161Z,1.95
2019-04-16T03:29:31.246Z,2.56
2019-04-16T03:32:35.294Z,2.09
2019-04-16T03:35:19.032Z,1.96
2019-04-16T03:38:06.638Z,1.89
2019-04-16T03:40:56.101Z,1.83
2019-04-16T03:43:40.722Z,1.77
2019-04-16T03:46:28.219Z,2.40
2019-04-16T03:49:15.333Z,1.88
2019-04-16T03:55:09.196Z,1.64
2019-04-16T04:01:03.488Z,1.51
2019-04-16T04:04:04.545Z,1.47
2019-04-16T04:09:58.863Z,1.35
2019-04-16T04:12:53.207Z,1.31
2019-04-16T04:15:55.119Z,1.26
2019-04-16T04:18:56.413Z,1.22
2019-04-16T04:21:47.032Z,1.19
2019-04-16T04:24:34.742Z,1.19
2019-04-16T04:27:22.784Z,1.17
2019-04-16T04:30:10.123Z,1.14
2019-04-16T04:36:03.597Z,1.15
2019-04-16T04:41:57.266Z,1.18
2019-04-16T04:44:46.852Z,1.21
2019-04-16T04:47:37.478Z,1.93
2019-04-16T04:50:24.580Z,1.55
2019-04-16T04:53:12.397Z,1.58
2019-04-16T04:56:14.732Z,1.63
2019-04-16T04:59:05.182Z,2.42
2019-04-16T05:01:57.126Z,2.03
2019-04-16T05:04:52.476Z,1.98
2019-04-16T05:07:39.617Z,2.01
2019-04-16T05:10:26.715Z,2.78
2019-04-16T05:16:19.247Z,2.34
2019-04-16T05:44:34.857Z,3.37
2019-04-16T06:12:14.396Z,4.71
2019-04-16T06:15:02.738Z,4.87
2019-04-16T06:46:56.064Z,6.73
2019-04-16T06:49:51.041Z,6.90
2019-04-16T06:52:52.647Z,7.06
2019-04-16T06:55:42.989Z,7.25
2019-04-16T06:58:51.145Z,7.42
2019-04-16T07:17:40.474Z,9.05
2019-04-16T07:20:42.253Z,9.29
2019-04-16T07:23:27.439Z,9.45
2019-04-16T07:29:23.754Z,10.19
2019-04-16T07:32:16.770Z,10.26
2019-04-16T07:35:19.426Z,10.45
2019-04-16T07:38:07.471Z,10.63
2019-04-16T07:41:12.884Z,10.86
2019-04-16T07:44:07.885Z,11.13
2019-04-16T07:47:05.756Z,11.23
2019-04-16T07:49:59.819Z,11.43
2019-04-16T07:52:45.639Z,11.61
2019-04-16T07:55:48.292Z,11.78
2019-04-16T07:58:35.321Z,11.99
2019-04-16T08:01:22.442Z,13.29
2019-04-16T08:04:09.246Z,12.64
2019-04-16T08:06:56.372Z,12.56
2019-04-16T08:09:43.155Z,13.80
2019-04-16T08:12:31.028Z,14.22
2019-04-16T08:15:16.537Z,13.53
2019-04-16T08:18:03.266Z,13.36
2019-04-16T08:21:01.229Z,13.41
2019-04-16T08:23:44.613Z,13.44
2019-04-16T08:26:31.877Z,13.48
2019-04-16T08:29:19.491Z,13.59
2019-04-16T08:32:06.201Z,13.64
2019-04-16T08:37:59.258Z,13.83
2019-04-16T08:40:46.952Z,13.92
2019-04-16T08:43:33.424Z,14.07
2019-04-16T08:52:32.002Z,14.47
2019-04-16T08:55:20.519Z,14.65
2019-04-16T08:58:07.493Z,14.75
2019-04-16T09:00:53.994Z,14.90
2019-04-16T09:03:41.038Z,15.03
2019-04-16T09:06:27.795Z,15.03
2019-04-16T09:09:30.751Z,15.17
2019-04-16T09:12:17.933Z,15.32
2019-04-16T09:15:04.703Z,15.47
2019-04-16T09:17:51.385Z,15.53
2019-04-16T09:20:38.549Z,15.68
2019-04-16T09:23:26.726Z,17.02
2019-04-16T09:26:23.686Z,16.26
2019-04-16T09:32:43.461Z,16.14
2019-04-16T09:35:30.840Z,17.52
2019-04-16T09:38:17.499Z,16.68
2019-04-16T09:41:17.779Z,16.56
2019-04-16T09:44:05.412Z,16.38
2019-04-16T09:49:58.882Z,16.47
2019-04-16T09:52:45.688Z,16.59
2019-04-16T09:55:32.724Z,16.71
2019-04-16T09:58:21.723Z,16.85
2019-04-16T10:01:07.167Z,17.04
2019-04-16T10:03:54.332Z,17.19
2019-04-16T10:12:55.021Z,17.42
2019-04-16T10:15:43.093Z,17.40
2019-04-16T10:18:34.674Z,17.44
2019-04-16T10:24:41.920Z,17.90
2019-04-16T10:27:32.246Z,17.98
2019-04-16T10:30:31.094Z,18.07
2019-04-16T10:33:18.457Z,18.18
2019-04-16T10:39:11.608Z,18.38
2019-04-16T10:42:16.986Z,19.79
2019-04-16T10:45:06.841Z,18.89
2019-04-16T10:47:53.635Z,18.90
2019-04-16T10:50:59.185Z,19.02
2019-04-16T10:54:04.531Z,19.02
2019-04-16T10:57:10.505Z,20.39
2019-04-16T10:59:57.712Z,19.33
2019-04-16T11:05:57.829Z,19.44
2019-04-16T11:11:50.467Z,19.32
2019-04-16T11:17:43.938Z,19.30
2019-04-16T11:20:31.232Z,19.23
2019-04-16T11:23:17.988Z,19.14
2019-04-16T11:26:05.488Z,19.32
2019-04-16T11:28:52.883Z,19.36
2019-04-16T11:31:40.032Z,19.35
2019-04-16T11:34:27.242Z,19.36
2019-04-16T11:37:14.777Z,19.41
2019-04-16T11:40:01.483Z,19.66
2019-04-16T11:42:48.126Z,21.15
2019-04-16T11:45:35.197Z,20.29
2019-04-16T11:48:22.200Z,20.20
2019-04-16T11:51:09.267Z,20.17
2019-04-16T11:54:11.933Z,20.16
2019-04-16T11:56:59.324Z,20.26
2019-04-16T11:59:44.206Z,20.33
2019-04-16T12:02:31.622Z,20.27
2019-04-16T12:05:30.675Z,20.29
2019-04-16T12:08:20.389Z,21.76
2019-04-16T12:11:07.267Z,20.78
2019-04-16T12:17:16.431Z,20.73
2019-04-16T12:20:06.930Z,20.63
2019-04-16T12:22:57.223Z,20.56
2019-04-16T12:35:34.827Z,20.11
2019-04-16T12:38:22.418Z,20.21
2019-04-16T12:41:15.016Z,21.70
2019-04-16T12:47:29.510Z,22.06
2019-04-16T12:50:17.430Z,20.70
2019-04-16T12:53:09.878Z,20.57
2019-04-16T12:56:05.946Z,20.36
2019-04-16T12:58:50.344Z,20.38
2019-04-16T13:01:51.282Z,20.70
2019-04-16T13:04:38.602Z,22.16
2019-04-16T13:07:25.305Z,21.29
2019-04-16T13:10:18.479Z,21.26
2019-04-16T13:13:08.148Z,21.27
2019-04-16T13:16:06.815Z,22.39
2019-04-16T13:19:06.934Z,22.39
2019-04-16T13:25:00.318Z,21.36
2019-04-16T13:27:50.547Z,21.40
2019-04-16T13:30:35.231Z,21.42
2019-04-16T13:33:22.565Z,21.20
2019-04-16T13:36:09.770Z,21.09
2019-04-16T13:39:06.116Z,20.97
2019-04-16T13:41:53.313Z,21.08
2019-04-16T13:44:42.553Z,22.47
2019-04-16T13:47:29.255Z,21.60
2019-04-16T13:50:16.105Z,21.54
2019-04-16T13:53:22.953Z,21.22
2019-04-16T13:56:28.172Z,21.14
2019-04-16T13:59:15.798Z,21.20
2019-04-16T14:02:04.207Z,21.24
2019-04-16T14:04:51.091Z,22.54
2019-04-16T14:07:38.086Z,21.52
2019-04-16T14:10:25.230Z,21.39
2019-04-16T14:13:13.623Z,21.25
2019-04-16T14:15:59.245Z,21.31
2019-04-16T14:18:46.176Z,21.15
2019-04-16T14:21:33.366Z,21.07
2019-04-16T14:24:21.805Z,20.84
2019-04-16T14:27:15.889Z,22.07
2019-04-16T14:30:02.773Z,21.32
2019-04-16T14:32:50.045Z,21.27
2019-04-16T14:35:40.042Z,21.31
2019-04-16T14:38:28.029Z,21.26
2019-04-16T14:41:16.156Z,21.16
2019-04-16T14:47:20.199Z,21.55
2019-04-16T14:50:07.625Z,21.22
2019-04-16T14:52:54.512Z,20.88
2019-04-16T14:55:47.155Z,20.68
2019-04-16T14:58:44.133Z,20.60
2019-04-16T15:04:57.801Z,20.39
2019-04-16T15:10:50.699Z,20.24
2019-04-16T15:16:52.667Z,20.84
2019-04-16T15:19:45.856Z,22.30
2019-04-16T15:22:32.687Z,22.74
2019-04-16T15:25:27.946Z,21.79
2019-04-16T15:31:32.652Z,23.00
2019-04-16T15:34:17.847Z,24.98
2019-04-16T15:52:56.963Z,24.43
2019-04-16T15:55:47.395Z,24.56
2019-04-16T15:58:43.456Z,25.08
2019-04-16T16:01:30.877Z,25.35
2019-04-16T16:04:36.232Z,27.06
2019-04-16T16:13:46.394Z,26.89
2019-04-16T16:16:42.010Z,25.02
2019-04-16T16:19:21.417Z,24.66
2019-04-16T16:22:11.935Z,24.42
2019-04-16T16:25:05.876Z,24.26
2019-04-16T16:27:49.952Z,25.96
2019-04-16T16:30:37.208Z,25.86
2019-04-16T16:39:35.995Z,22.69
2019-04-16T16:42:23.550Z,22.29
2019-04-16T16:45:10.848Z,21.70
2019-04-16T16:51:04.079Z,20.06
2019-04-16T16:53:50.568Z,19.31
2019-04-16T16:56:56.367Z,20.06
2019-04-16T17:00:01.534Z,19.86
2019-04-16T17:02:48.913Z,18.29
2019-04-16T17:05:44.911Z,19.00
2019-04-16T17:11:55.685Z,17.55
2019-04-16T17:14:39.640Z,17.04
2019-04-16T17:17:26.777Z,17.82
2019-04-16T17:20:13.562Z,16.86
2019-04-16T17:23:00.379Z,16.60
2019-04-16T17:25:47.644Z,17.44
2019-04-16T17:28:34.405Z,17.36
2019-04-16T17:31:22.535Z,17.18
2019-04-16T17:34:09.460Z,16.09
2019-04-16T17:40:05.563Z,16.36
2019-04-16T17:49:33.942Z,14.65
2019-04-16T17:55:37.718Z,14.12
2019-04-16T17:58:28.157Z,14.81
2019-04-16T18:01:30.600Z,13.98
2019-04-16T18:23:38.761Z,12.13
2019-04-16T18:26:29.137Z,11.94
2019-04-16T18:29:36.651Z,11.79
2019-04-16T18:32:27.685Z,11.61
2019-04-16T18:35:19.033Z,11.47
2019-04-16T18:38:06.571Z,11.31
2019-04-16T19:05:54.371Z,10.50
2019-04-16T19:08:43.181Z,10.45
2019-04-16T19:30:06.912Z,9.75
2019-04-16T19:32:53.890Z,9.65
2019-04-16T20:16:01.054Z,8.20
2019-04-16T20:18:54.644Z,8.10
2019-04-16T20:21:42.392Z,8.01
2019-04-16T20:31:01.923Z,8.53
2019-04-16T20:33:41.727Z,7.96
2019-04-16T20:36:28.815Z,7.85
2019-04-16T20:42:21.809Z,7.63
2019-04-16T21:16:25.043Z,6.98
2019-04-16T21:22:17.824Z,6.78
2019-04-16T21:25:05.109Z,6.70
2019-04-16T21:41:08.773Z,6.31
2019-04-16T22:15:03.175Z,5.98
2019-04-16T22:55:08.865Z,5.51
2019-04-16T22:57:56.447Z,6.17
2019-04-16T23:00:44.371Z,5.69
